Terminal Aerodrome Forecast
Issued by NWS

Home | Current Version | Previous Version | Text Only | Print | Product List | Glossary On
Versions: 1 2 3 4 5 6 7 8 9 10 11 12 13 14 15 16 17
151
FTUS44 KLZK 262330
TAFLLQ
TAF
KLLQ 262330Z 2700/2724 16008KT P6SM VCSH SCT040 OVC080
     FM270200 14005KT P6SM VCSH SCT025 OVC050
     FM270500 14004KT 5SM -SHRA VCTS BKN025 OVC035CB
     FM270800 08004KT 4SM -RA BR VCTS OVC010CB
     FM271500 10008KT 5SM BR VCSH OVC025=

USA.gov is the U.S. government's official web portal to all federal, state and local government web resources and services.